sensor_id;sensor_type;location;lat;lon;timestamp;P1;durP1;ratioP1;P2;durP2;ratioP2
27003;SDS011;14546;47.590;19.022;2023-04-25T00:00:35;2.75;;;1.90;;
27003;SDS011;14546;47.590;19.022;2023-04-25T00:03:01;4.88;;;2.17;;
27003;SDS011;14546;47.590;19.022;2023-04-25T00:05:30;2.53;;;2.00;;
27003;SDS011;14546;47.590;19.022;2023-04-25T00:07:57;5.78;;;2.10;;
27003;SDS011;14546;47.590;19.022;2023-04-25T00:10:24;7.10;;;2.15;;
27003;SDS011;14546;47.590;19.022;2023-04-25T00:12:50;3.17;;;1.88;;
27003;SDS011;14546;47.590;19.022;2023-04-25T00:15:17;2.22;;;2.00;;
27003;SDS011;14546;47.590;19.022;2023-04-25T00:17:43;4.30;;;2.22;;
27003;SDS011;14546;47.590;19.022;2023-04-25T00:20:10;4.40;;;2.10;;
27003;SDS011;14546;47.590;19.022;2023-04-25T00:22:37;4.25;;;2.72;;
27003;SDS011;14546;47.590;19.022;2023-04-25T00:25:04;2.60;;;2.20;;
27003;SDS011;14546;47.590;19.022;2023-04-25T00:27:31;3.05;;;2.40;;
27003;SDS011;14546;47.590;19.022;2023-04-25T00:29:57;3.13;;;2.67;;
27003;SDS011;14546;47.590;19.022;2023-04-25T00:32:23;4.70;;;2.75;;
27003;SDS011;14546;47.590;19.022;2023-04-25T00:34:49;4.82;;;2.65;;
27003;SDS011;14546;47.590;19.022;2023-04-25T00:37:15;5.70;;;2.63;;
27003;SDS011;14546;47.590;19.022;2023-04-25T00:39:43;3.35;;;2.55;;
27003;SDS011;14546;47.590;19.022;2023-04-25T00:42:09;3.70;;;2.80;;
27003;SDS011;14546;47.590;19.022;2023-04-25T00:44:35;3.00;;;2.70;;
27003;SDS011;14546;47.590;19.022;2023-04-25T00:47:02;3.28;;;2.92;;
27003;SDS011;14546;47.590;19.022;2023-04-25T00:49:29;3.88;;;3.10;;
27003;SDS011;14546;47.590;19.022;2023-04-25T00:51:56;3.58;;;3.10;;
27003;SDS011;14546;47.590;19.022;2023-04-25T00:54:22;3.30;;;2.80;;
27003;SDS011;14546;47.590;19.022;2023-04-25T00:56:49;4.00;;;3.50;;
27003;SDS011;14546;47.590;19.022;2023-04-25T00:59:16;4.65;;;3.08;;
27003;SDS011;14546;47.590;19.022;2023-04-25T01:01:43;3.30;;;2.97;;
27003;SDS011;14546;47.590;19.022;2023-04-25T01:04:10;3.28;;;2.38;;
27003;SDS011;14546;47.590;19.022;2023-04-25T01:06:36;4.70;;;3.22;;
27003;SDS011;14546;47.590;19.022;2023-04-25T01:09:02;3.90;;;3.05;;
27003;SDS011;14546;47.590;19.022;2023-04-25T01:11:30;3.50;;;3.20;;
27003;SDS011;14546;47.590;19.022;2023-04-25T01:13:57;4.22;;;3.38;;
27003;SDS011;14546;47.590;19.022;2023-04-25T01:16:23;5.25;;;3.35;;
27003;SDS011;14546;47.590;19.022;2023-04-25T01:18:49;3.50;;;3.10;;
27003;SDS011;14546;47.590;19.022;2023-04-25T01:21:16;5.93;;;3.60;;
27003;SDS011;14546;47.590;19.022;2023-04-25T01:23:42;6.15;;;4.00;;
27003;SDS011;14546;47.590;19.022;2023-04-25T01:26:10;4.28;;;3.65;;
27003;SDS011;14546;47.590;19.022;2023-04-25T01:28:37;3.53;;;3.05;;
27003;SDS011;14546;47.590;19.022;2023-04-25T01:31:06;7.55;;;4.13;;
27003;SDS011;14546;47.590;19.022;2023-04-25T01:33:32;4.47;;;3.78;;
27003;SDS011;14546;47.590;19.022;2023-04-25T01:36:00;4.63;;;3.88;;
27003;SDS011;14546;47.590;19.022;2023-04-25T01:38:26;5.60;;;3.97;;
27003;SDS011;14546;47.590;19.022;2023-04-25T01:40:53;5.53;;;4.10;;
27003;SDS011;14546;47.590;19.022;2023-04-25T01:43:20;4.00;;;3.60;;
27003;SDS011;14546;47.590;19.022;2023-04-25T01:45:46;6.95;;;3.60;;
27003;SDS011;14546;47.590;19.022;2023-04-25T01:48:16;3.85;;;3.45;;
27003;SDS011;14546;47.590;19.022;2023-04-25T01:50:43;4.97;;;4.28;;
27003;SDS011;14546;47.590;19.022;2023-04-25T01:53:10;4.70;;;3.70;;
27003;SDS011;14546;47.590;19.022;2023-04-25T01:55:39;4.82;;;3.65;;
27003;SDS011;14546;47.590;19.022;2023-04-25T01:58:05;6.15;;;4.00;;
27003;SDS011;14546;47.590;19.022;2023-04-25T02:00:37;4.25;;;3.40;;
27003;SDS011;14546;47.590;19.022;2023-04-25T02:03:05;4.82;;;4.05;;
27003;SDS011;14546;47.590;19.022;2023-04-25T02:05:35;8.48;;;4.03;;
27003;SDS011;14546;47.590;19.022;2023-04-25T02:08:02;4.35;;;3.13;;
27003;SDS011;14546;47.590;19.022;2023-04-25T02:10:29;7.88;;;4.55;;
27003;SDS011;14546;47.590;19.022;2023-04-25T02:12:56;6.68;;;3.47;;
27003;SDS011;14546;47.590;19.022;2023-04-25T02:15:22;5.78;;;3.80;;
27003;SDS011;14546;47.590;19.022;2023-04-25T02:17:48;7.30;;;3.80;;
27003;SDS011;14546;47.590;19.022;2023-04-25T02:20:14;5.15;;;3.58;;
27003;SDS011;14546;47.590;19.022;2023-04-25T02:22:45;7.57;;;3.70;;
27003;SDS011;14546;47.590;19.022;2023-04-25T02:25:11;4.63;;;3.30;;
27003;SDS011;14546;47.590;19.022;2023-04-25T02:27:37;4.63;;;3.30;;
27003;SDS011;14546;47.590;19.022;2023-04-25T02:30:05;4.22;;;3.03;;
27003;SDS011;14546;47.590;19.022;2023-04-25T02:32:32;4.18;;;2.53;;
27003;SDS011;14546;47.590;19.022;2023-04-25T02:35:00;10.45;;;3.78;;
27003;SDS011;14546;47.590;19.022;2023-04-25T02:37:29;5.43;;;2.70;;
27003;SDS011;14546;47.590;19.022;2023-04-25T02:39:55;4.65;;;2.55;;
27003;SDS011;14546;47.590;19.022;2023-04-25T02:42:21;2.42;;;2.00;;
27003;SDS011;14546;47.590;19.022;2023-04-25T02:44:47;6.07;;;2.55;;
27003;SDS011;14546;47.590;19.022;2023-04-25T02:47:13;3.88;;;2.80;;
27003;SDS011;14546;47.590;19.022;2023-04-25T02:49:39;3.83;;;2.30;;
27003;SDS011;14546;47.590;19.022;2023-04-25T02:52:05;2.90;;;2.20;;
27003;SDS011;14546;47.590;19.022;2023-04-25T02:54:32;3.50;;;2.50;;
27003;SDS011;14546;47.590;19.022;2023-04-25T02:56:57;4.20;;;3.22;;
27003;SDS011;14546;47.590;19.022;2023-04-25T02:59:23;3.67;;;2.72;;
27003;SDS011;14546;47.590;19.022;2023-04-25T03:01:49;4.68;;;3.45;;
27003;SDS011;14546;47.590;19.022;2023-04-25T03:04:14;5.28;;;3.80;;
27003;SDS011;14546;47.590;19.022;2023-04-25T03:06:40;3.85;;;3.45;;
27003;SDS011;14546;47.590;19.022;2023-04-25T03:09:06;6.63;;;3.47;;
27003;SDS011;14546;47.590;19.022;2023-04-25T03:11:33;5.88;;;3.80;;
27003;SDS011;14546;47.590;19.022;2023-04-25T03:14:02;5.93;;;3.70;;
27003;SDS011;14546;47.590;19.022;2023-04-25T03:16:28;6.95;;;3.53;;
27003;SDS011;14546;47.590;19.022;2023-04-25T03:18:54;5.78;;;4.07;;
27003;SDS011;14546;47.590;19.022;2023-04-25T03:21:20;7.03;;;4.20;;
27003;SDS011;14546;47.590;19.022;2023-04-25T03:23:46;4.50;;;3.10;;
27003;SDS011;14546;47.590;19.022;2023-04-25T03:26:13;5.75;;;3.97;;
27003;SDS011;14546;47.590;19.022;2023-04-25T03:28:41;3.40;;;3.10;;
27003;SDS011;14546;47.590;19.022;2023-04-25T03:31:07;4.90;;;3.78;;
27003;SDS011;14546;47.590;19.022;2023-04-25T03:33:33;3.83;;;3.42;;
27003;SDS011;14546;47.590;19.022;2023-04-25T03:36:03;4.10;;;3.67;;
27003;SDS011;14546;47.590;19.022;2023-04-25T03:38:31;9.55;;;4.00;;
27003;SDS011;14546;47.590;19.022;2023-04-25T03:40:57;4.43;;;3.95;;
27003;SDS011;14546;47.590;19.022;2023-04-25T03:43:23;5.10;;;3.50;;
27003;SDS011;14546;47.590;19.022;2023-04-25T03:45:50;4.53;;;3.63;;
27003;SDS011;14546;47.590;19.022;2023-04-25T03:48:16;5.40;;;3.65;;
27003;SDS011;14546;47.590;19.022;2023-04-25T03:50:42;7.13;;;4.20;;
27003;SDS011;14546;47.590;19.022;2023-04-25T03:53:08;4.22;;;3.65;;
27003;SDS011;14546;47.590;19.022;2023-04-25T03:55:36;5.38;;;4.00;;
27003;SDS011;14546;47.590;19.022;2023-04-25T03:58:03;4.50;;;3.75;;
27003;SDS011;14546;47.590;19.022;2023-04-25T04:00:30;6.70;;;3.67;;
27003;SDS011;14546;47.590;19.022;2023-04-25T04:02:56;5.28;;;3.85;;
27003;SDS011;14546;47.590;19.022;2023-04-25T04:05:22;6.75;;;4.13;;
27003;SDS011;14546;47.590;19.022;2023-04-25T04:07:48;5.10;;;3.92;;
27003;SDS011;14546;47.590;19.022;2023-04-25T04:10:13;7.63;;;4.47;;
27003;SDS011;14546;47.590;19.022;2023-04-25T04:12:39;7.32;;;4.60;;
27003;SDS011;14546;47.590;19.022;2023-04-25T04:15:05;5.22;;;4.72;;
27003;SDS011;14546;47.590;19.022;2023-04-25T04:17:31;6.00;;;4.38;;
27003;SDS011;14546;47.590;19.022;2023-04-25T04:19:58;5.75;;;4.43;;
27003;SDS011;14546;47.590;19.022;2023-04-25T04:22:24;5.25;;;4.10;;
27003;SDS011;14546;47.590;19.022;2023-04-25T04:24:51;4.53;;;4.10;;
27003;SDS011;14546;47.590;19.022;2023-04-25T04:27:18;5.50;;;4.63;;
27003;SDS011;14546;47.590;19.022;2023-04-25T04:29:47;6.70;;;4.43;;
27003;SDS011;14546;47.590;19.022;2023-04-25T04:32:13;8.77;;;4.07;;
27003;SDS011;14546;47.590;19.022;2023-04-25T04:34:39;9.10;;;4.40;;
27003;SDS011;14546;47.590;19.022;2023-04-25T04:37:07;6.03;;;4.43;;
27003;SDS011;14546;47.590;19.022;2023-04-25T04:39:36;5.40;;;3.95;;
27003;SDS011;14546;47.590;19.022;2023-04-25T04:42:02;9.27;;;4.20;;
27003;SDS011;14546;47.590;19.022;2023-04-25T04:44:29;10.00;;;4.70;;
27003;SDS011;14546;47.590;19.022;2023-04-25T04:46:58;11.48;;;5.07;;
27003;SDS011;14546;47.590;19.022;2023-04-25T04:49:24;5.38;;;4.30;;
27003;SDS011;14546;47.590;19.022;2023-04-25T04:51:51;5.30;;;4.78;;
27003;SDS011;14546;47.590;19.022;2023-04-25T04:54:19;7.38;;;4.50;;
27003;SDS011;14546;47.590;19.022;2023-04-25T04:56:47;6.90;;;4.57;;
27003;SDS011;14546;47.590;19.022;2023-04-25T04:59:13;6.90;;;4.85;;
27003;SDS011;14546;47.590;19.022;2023-04-25T05:01:38;8.35;;;5.30;;
27003;SDS011;14546;47.590;19.022;2023-04-25T05:04:05;6.22;;;4.90;;
27003;SDS011;14546;47.590;19.022;2023-04-25T05:06:30;5.25;;;4.55;;
27003;SDS011;14546;47.590;19.022;2023-04-25T05:08:56;11.30;;;5.63;;
27003;SDS011;14546;47.590;19.022;2023-04-25T05:11:23;7.53;;;5.13;;
27003;SDS011;14546;47.590;19.022;2023-04-25T05:13:52;7.93;;;5.15;;
27003;SDS011;14546;47.590;19.022;2023-04-25T05:16:18;8.13;;;5.63;;
27003;SDS011;14546;47.590;19.022;2023-04-25T05:18:44;5.70;;;5.07;;
27003;SDS011;14546;47.590;19.022;2023-04-25T05:21:11;7.25;;;5.45;;
27003;SDS011;14546;47.590;19.022;2023-04-25T05:23:36;7.30;;;5.95;;
27003;SDS011;14546;47.590;19.022;2023-04-25T05:26:02;5.22;;;4.63;;
27003;SDS011;14546;47.590;19.022;2023-04-25T05:28:28;7.63;;;5.60;;
27003;SDS011;14546;47.590;19.022;2023-04-25T05:30:53;6.13;;;5.10;;
27003;SDS011;14546;47.590;19.022;2023-04-25T05:33:22;5.57;;;5.03;;
27003;SDS011;14546;47.590;19.022;2023-04-25T05:35:48;6.45;;;5.60;;
27003;SDS011;14546;47.590;19.022;2023-04-25T05:38:14;8.68;;;5.88;;
27003;SDS011;14546;47.590;19.022;2023-04-25T05:40:40;6.72;;;5.32;;
27003;SDS011;14546;47.590;19.022;2023-04-25T05:43:06;9.25;;;4.38;;
27003;SDS011;14546;47.590;19.022;2023-04-25T05:45:33;9.90;;;5.40;;
27003;SDS011;14546;47.590;19.022;2023-04-25T05:48:00;17.25;;;7.18;;
27003;SDS011;14546;47.590;19.022;2023-04-25T05:50:26;9.50;;;6.40;;
27003;SDS011;14546;47.590;19.022;2023-04-25T05:52:52;10.48;;;6.53;;
27003;SDS011;14546;47.590;19.022;2023-04-25T05:55:18;18.85;;;7.97;;
27003;SDS011;14546;47.590;19.022;2023-04-25T05:57:43;9.77;;;7.38;;
27003;SDS011;14546;47.590;19.022;2023-04-25T06:00:14;11.50;;;6.80;;
27003;SDS011;14546;47.590;19.022;2023-04-25T06:02:40;14.63;;;8.98;;
27003;SDS011;14546;47.590;19.022;2023-04-25T06:05:06;14.25;;;9.75;;
27003;SDS011;14546;47.590;19.022;2023-04-25T06:07:32;14.77;;;10.52;;
27003;SDS011;14546;47.590;19.022;2023-04-25T06:09:58;13.82;;;8.60;;
27003;SDS011;14546;47.590;19.022;2023-04-25T06:12:25;13.40;;;8.93;;
27003;SDS011;14546;47.590;19.022;2023-04-25T06:14:51;11.10;;;8.68;;
27003;SDS011;14546;47.590;19.022;2023-04-25T06:17:17;16.35;;;10.55;;
27003;SDS011;14546;47.590;19.022;2023-04-25T06:19:42;13.65;;;10.48;;
27003;SDS011;14546;47.590;19.022;2023-04-25T06:22:08;17.40;;;12.13;;
27003;SDS011;14546;47.590;19.022;2023-04-25T06:24:34;19.52;;;12.98;;
27003;SDS011;14546;47.590;19.022;2023-04-25T06:27:02;16.58;;;10.50;;
27003;SDS011;14546;47.590;19.022;2023-04-25T06:29:27;16.35;;;11.65;;
27003;SDS011;14546;47.590;19.022;2023-04-25T06:31:54;14.52;;;11.60;;
27003;SDS011;14546;47.590;19.022;2023-04-25T06:34:19;17.02;;;11.32;;
27003;SDS011;14546;47.590;19.022;2023-04-25T06:36:45;18.13;;;12.02;;
27003;SDS011;14546;47.590;19.022;2023-04-25T06:39:11;14.02;;;11.55;;
27003;SDS011;14546;47.590;19.022;2023-04-25T06:41:39;15.43;;;10.77;;
27003;SDS011;14546;47.590;19.022;2023-04-25T06:44:05;14.07;;;11.82;;
27003;SDS011;14546;47.590;19.022;2023-04-25T06:46:34;15.63;;;11.10;;
27003;SDS011;14546;47.590;19.022;2023-04-25T06:49:04;13.73;;;10.45;;
27003;SDS011;14546;47.590;19.022;2023-04-25T06:51:31;15.13;;;11.13;;
27003;SDS011;14546;47.590;19.022;2023-04-25T06:53:57;15.88;;;12.00;;
27003;SDS011;14546;47.590;19.022;2023-04-25T06:56:22;14.90;;;11.10;;
27003;SDS011;14546;47.590;19.022;2023-04-25T06:58:48;13.13;;;10.98;;
27003;SDS011;14546;47.590;19.022;2023-04-25T07:01:14;13.20;;;10.88;;
27003;SDS011;14546;47.590;19.022;2023-04-25T07:03:40;13.30;;;9.98;;
27003;SDS011;14546;47.590;19.022;2023-04-25T07:06:06;15.30;;;10.30;;
27003;SDS011;14546;47.590;19.022;2023-04-25T07:08:31;11.43;;;9.45;;
27003;SDS011;14546;47.590;19.022;2023-04-25T07:10:57;14.27;;;10.80;;
27003;SDS011;14546;47.590;19.022;2023-04-25T07:13:23;12.80;;;10.10;;
27003;SDS011;14546;47.590;19.022;2023-04-25T07:15:49;12.23;;;9.52;;
27003;SDS011;14546;47.590;19.022;2023-04-25T07:18:14;10.85;;;9.43;;
27003;SDS011;14546;47.590;19.022;2023-04-25T07:20:41;12.30;;;9.70;;
27003;SDS011;14546;47.590;19.022;2023-04-25T07:23:06;11.77;;;8.95;;
27003;SDS011;14546;47.590;19.022;2023-04-25T07:25:32;10.43;;;8.75;;
27003;SDS011;14546;47.590;19.022;2023-04-25T07:27:58;12.80;;;9.60;;
27003;SDS011;14546;47.590;19.022;2023-04-25T07:30:23;9.80;;;8.80;;
27003;SDS011;14546;47.590;19.022;2023-04-25T07:32:49;11.48;;;8.82;;
27003;SDS011;14546;47.590;19.022;2023-04-25T07:35:16;11.50;;;7.80;;
27003;SDS011;14546;47.590;19.022;2023-04-25T07:37:42;10.80;;;8.05;;
27003;SDS011;14546;47.590;19.022;2023-04-25T07:40:08;13.00;;;7.88;;
27003;SDS011;14546;47.590;19.022;2023-04-25T07:42:34;10.38;;;8.00;;
27003;SDS011;14546;47.590;19.022;2023-04-25T07:45:00;9.75;;;7.22;;
27003;SDS011;14546;47.590;19.022;2023-04-25T07:47:30;6.90;;;6.20;;
27003;SDS011;14546;47.590;19.022;2023-04-25T07:49:55;8.10;;;6.25;;
27003;SDS011;14546;47.590;19.022;2023-04-25T07:52:22;9.23;;;6.55;;
27003;SDS011;14546;47.590;19.022;2023-04-25T07:54:48;11.95;;;7.50;;
27003;SDS011;14546;47.590;19.022;2023-04-25T07:57:14;7.53;;;6.50;;
27003;SDS011;14546;47.590;19.022;2023-04-25T07:59:41;8.02;;;6.25;;
27003;SDS011;14546;47.590;19.022;2023-04-25T08:02:07;9.07;;;5.70;;
27003;SDS011;14546;47.590;19.022;2023-04-25T08:04:33;7.70;;;5.93;;
27003;SDS011;14546;47.590;19.022;2023-04-25T08:06:58;5.80;;;5.13;;
27003;SDS011;14546;47.590;19.022;2023-04-25T08:09:24;6.18;;;5.57;;
27003;SDS011;14546;47.590;19.022;2023-04-25T08:11:50;5.82;;;4.40;;
27003;SDS011;14546;47.590;19.022;2023-04-25T08:14:16;8.82;;;4.88;;
27003;SDS011;14546;47.590;19.022;2023-04-25T08:16:42;7.57;;;5.15;;
27003;SDS011;14546;47.590;19.022;2023-04-25T08:19:07;5.15;;;4.65;;
27003;SDS011;14546;47.590;19.022;2023-04-25T08:21:34;4.85;;;4.40;;
27003;SDS011;14546;47.590;19.022;2023-04-25T08:24:00;5.00;;;4.25;;
27003;SDS011;14546;47.590;19.022;2023-04-25T08:26:25;8.30;;;4.18;;
27003;SDS011;14546;47.590;19.022;2023-04-25T08:28:51;6.10;;;4.22;;
27003;SDS011;14546;47.590;19.022;2023-04-25T08:31:17;5.05;;;4.32;;
27003;SDS011;14546;47.590;19.022;2023-04-25T08:33:43;6.20;;;4.35;;
27003;SDS011;14546;47.590;19.022;2023-04-25T08:36:10;6.00;;;4.18;;
27003;SDS011;14546;47.590;19.022;2023-04-25T08:38:35;7.22;;;3.67;;
27003;SDS011;14546;47.590;19.022;2023-04-25T08:41:01;4.88;;;3.60;;
27003;SDS011;14546;47.590;19.022;2023-04-25T08:43:28;5.25;;;3.42;;
27003;SDS011;14546;47.590;19.022;2023-04-25T08:45:57;4.90;;;4.40;;
27003;SDS011;14546;47.590;19.022;2023-04-25T08:48:25;6.00;;;3.85;;
27003;SDS011;14546;47.590;19.022;2023-04-25T08:50:54;4.47;;;4.07;;
27003;SDS011;14546;47.590;19.022;2023-04-25T08:53:30;4.00;;;3.63;;
27003;SDS011;14546;47.590;19.022;2023-04-25T08:55:58;3.97;;;3.60;;
27003;SDS011;14546;47.590;19.022;2023-04-25T08:58:24;5.93;;;4.13;;
27003;SDS011;14546;47.590;19.022;2023-04-25T09:00:51;8.18;;;4.43;;
27003;SDS011;14546;47.590;19.022;2023-04-25T09:03:17;4.47;;;3.63;;
27003;SDS011;14546;47.590;19.022;2023-04-25T09:05:43;4.30;;;3.90;;
27003;SDS011;14546;47.590;19.022;2023-04-25T09:08:09;4.32;;;3.58;;
27003;SDS011;14546;47.590;19.022;2023-04-25T09:10:35;4.40;;;3.88;;
27003;SDS011;14546;47.590;19.022;2023-04-25T09:13:11;5.03;;;4.05;;
27003;SDS011;14546;47.590;19.022;2023-04-25T09:15:49;3.67;;;2.90;;
27003;SDS011;14546;47.590;19.022;2023-04-25T09:18:30;4.97;;;3.25;;
27003;SDS011;14546;47.590;19.022;2023-04-25T09:21:04;5.57;;;3.17;;
27003;SDS011;14546;47.590;19.022;2023-04-25T09:26:03;4.25;;;3.85;;
27003;SDS011;14546;47.590;19.022;2023-04-25T09:28:32;5.40;;;3.45;;
27003;SDS011;14546;47.590;19.022;2023-04-25T09:30:59;4.65;;;3.20;;
27003;SDS011;14546;47.590;19.022;2023-04-25T09:33:29;3.65;;;2.95;;
27003;SDS011;14546;47.590;19.022;2023-04-25T09:36:10;3.15;;;2.70;;
27003;SDS011;14546;47.590;19.022;2023-04-25T09:38:42;11.52;;;4.53;;
27003;SDS011;14546;47.590;19.022;2023-04-25T09:41:10;10.63;;;2.47;;
27003;SDS011;14546;47.590;19.022;2023-04-25T09:43:37;2.72;;;2.20;;
27003;SDS011;14546;47.590;19.022;2023-04-25T09:46:07;2.20;;;2.00;;
27003;SDS011;14546;47.590;19.022;2023-04-25T09:48:34;8.73;;;2.45;;
27003;SDS011;14546;47.590;19.022;2023-04-25T09:53:33;14.40;;;2.10;;
27003;SDS011;14546;47.590;19.022;2023-04-25T09:56:04;2.28;;;1.88;;
27003;SDS011;14546;47.590;19.022;2023-04-25T09:58:34;6.40;;;1.85;;
27003;SDS011;14546;47.590;19.022;2023-04-25T10:01:01;1.60;;;1.40;;
27003;SDS011;14546;47.590;19.022;2023-04-25T10:03:33;2.20;;;1.50;;
27003;SDS011;14546;47.590;19.022;2023-04-25T10:06:01;2.92;;;1.20;;
27003;SDS011;14546;47.590;19.022;2023-04-25T10:08:35;6.13;;;1.45;;
27003;SDS011;14546;47.590;19.022;2023-04-25T10:11:03;1.30;;;1.10;;
27003;SDS011;14546;47.590;19.022;2023-04-25T10:13:30;1.10;;;1.00;;
27003;SDS011;14546;47.590;19.022;2023-04-25T10:15:58;1.33;;;1.02;;
27003;SDS011;14546;47.590;19.022;2023-04-25T10:18:26;2.67;;;1.92;;
27003;SDS011;14546;47.590;19.022;2023-04-25T10:20:53;1.83;;;1.00;;
27003;SDS011;14546;47.590;19.022;2023-04-25T10:23:20;1.23;;;1.00;;
27003;SDS011;14546;47.590;19.022;2023-04-25T10:25:49;1.33;;;1.15;;
27003;SDS011;14546;47.590;19.022;2023-04-25T10:28:16;1.48;;;1.25;;
27003;SDS011;14546;47.590;19.022;2023-04-25T10:31:02;1.75;;;1.30;;
27003;SDS011;14546;47.590;19.022;2023-04-25T10:33:33;1.63;;;1.08;;
27003;SDS011;14546;47.590;19.022;2023-04-25T10:38:38;1.35;;;1.00;;
27003;SDS011;14546;47.590;19.022;2023-04-25T10:41:05;1.35;;;0.73;;
27003;SDS011;14546;47.590;19.022;2023-04-25T10:43:35;2.20;;;0.90;;
27003;SDS011;14546;47.590;19.022;2023-04-25T10:56:20;1.02;;;0.50;;
27003;SDS011;14546;47.590;19.022;2023-04-25T10:59:06;0.47;;;0.47;;
27003;SDS011;14546;47.590;19.022;2023-04-25T11:01:40;0.30;;;0.30;;
27003;SDS011;14546;47.590;19.022;2023-04-25T11:07:20;0.82;;;0.43;;
27003;SDS011;14546;47.590;19.022;2023-04-25T11:09:48;0.50;;;0.50;;
27003;SDS011;14546;47.590;19.022;2023-04-25T11:12:15;0.77;;;0.50;;
27003;SDS011;14546;47.590;19.022;2023-04-25T11:14:42;5.40;;;1.63;;
27003;SDS011;14546;47.590;19.022;2023-04-25T11:17:08;1.88;;;0.88;;
27003;SDS011;14546;47.590;19.022;2023-04-25T11:19:36;12.00;;;2.55;;
27003;SDS011;14546;47.590;19.022;2023-04-25T11:22:02;5.68;;;1.45;;
27003;SDS011;14546;47.590;19.022;2023-04-25T11:24:29;2.38;;;0.93;;
27003;SDS011;14546;47.590;19.022;2023-04-25T11:26:55;6.43;;;1.45;;
27003;SDS011;14546;47.590;19.022;2023-04-25T11:29:22;2.95;;;0.63;;
27003;SDS011;14546;47.590;19.022;2023-04-25T11:31:49;4.82;;;1.08;;
27003;SDS011;14546;47.590;19.022;2023-04-25T11:34:18;3.67;;;0.70;;
27003;SDS011;14546;47.590;19.022;2023-04-25T11:36:44;3.58;;;0.60;;
27003;SDS011;14546;47.590;19.022;2023-04-25T11:39:11;0.40;;;0.40;;
27003;SDS011;14546;47.590;19.022;2023-04-25T11:41:37;0.40;;;0.40;;
27003;SDS011;14546;47.590;19.022;2023-04-25T11:44:03;0.70;;;0.38;;
27003;SDS011;14546;47.590;19.022;2023-04-25T11:46:30;0.93;;;0.60;;
27003;SDS011;14546;47.590;19.022;2023-04-25T11:48:56;0.68;;;0.47;;
27003;SDS011;14546;47.590;19.022;2023-04-25T11:51:23;0.65;;;0.50;;
27003;SDS011;14546;47.590;19.022;2023-04-25T11:53:49;2.22;;;0.70;;
27003;SDS011;14546;47.590;19.022;2023-04-25T11:56:15;0.40;;;0.40;;
27003;SDS011;14546;47.590;19.022;2023-04-25T11:58:53;1.40;;;0.52;;
27003;SDS011;14546;47.590;19.022;2023-04-25T12:01:26;0.63;;;0.50;;
27003;SDS011;14546;47.590;19.022;2023-04-25T12:03:53;0.65;;;0.65;;
27003;SDS011;14546;47.590;19.022;2023-04-25T12:06:19;1.60;;;0.70;;
27003;SDS011;14546;47.590;19.022;2023-04-25T12:09:03;1.13;;;0.80;;
27003;SDS011;14546;47.590;19.022;2023-04-25T12:11:30;2.78;;;0.80;;
27003;SDS011;14546;47.590;19.022;2023-04-25T12:14:01;1.42;;;0.60;;
27003;SDS011;14546;47.590;19.022;2023-04-25T12:16:28;3.03;;;0.63;;
27003;SDS011;14546;47.590;19.022;2023-04-25T12:18:55;1.95;;;0.80;;
27003;SDS011;14546;47.590;19.022;2023-04-25T12:21:22;6.03;;;0.80;;
27003;SDS011;14546;47.590;19.022;2023-04-25T12:23:48;0.63;;;0.60;;
27003;SDS011;14546;47.590;19.022;2023-04-25T12:26:14;1.20;;;0.90;;
27003;SDS011;14546;47.590;19.022;2023-04-25T12:28:44;1.15;;;0.80;;
27003;SDS011;14546;47.590;19.022;2023-04-25T12:31:12;3.42;;;0.90;;
27003;SDS011;14546;47.590;19.022;2023-04-25T12:33:40;2.08;;;0.90;;
27003;SDS011;14546;47.590;19.022;2023-04-25T12:36:07;5.07;;;0.80;;
27003;SDS011;14546;47.590;19.022;2023-04-25T12:38:37;1.42;;;0.70;;
27003;SDS011;14546;47.590;19.022;2023-04-25T12:41:03;3.17;;;0.70;;
27003;SDS011;14546;47.590;19.022;2023-04-25T12:43:29;1.35;;;0.77;;
27003;SDS011;14546;47.590;19.022;2023-04-25T12:45:55;1.40;;;0.73;;
27003;SDS011;14546;47.590;19.022;2023-04-25T12:48:22;1.40;;;0.60;;
27003;SDS011;14546;47.590;19.022;2023-04-25T12:50:48;0.95;;;0.75;;
27003;SDS011;14546;47.590;19.022;2023-04-25T12:53:16;3.95;;;0.90;;
27003;SDS011;14546;47.590;19.022;2023-04-25T12:55:42;1.98;;;0.70;;
27003;SDS011;14546;47.590;19.022;2023-04-25T12:58:08;2.38;;;0.73;;
27003;SDS011;14546;47.590;19.022;2023-04-25T13:00:34;3.10;;;0.80;;
27003;SDS011;14546;47.590;19.022;2023-04-25T13:03:00;2.78;;;1.00;;
27003;SDS011;14546;47.590;19.022;2023-04-25T13:05:27;0.60;;;0.60;;
27003;SDS011;14546;47.590;19.022;2023-04-25T13:07:53;1.40;;;0.75;;
27003;SDS011;14546;47.590;19.022;2023-04-25T13:10:19;1.52;;;1.00;;
27003;SDS011;14546;47.590;19.022;2023-04-25T13:12:45;2.78;;;0.80;;
27003;SDS011;14546;47.590;19.022;2023-04-25T13:15:11;1.27;;;0.93;;
27003;SDS011;14546;47.590;19.022;2023-04-25T13:17:37;2.28;;;1.05;;
27003;SDS011;14546;47.590;19.022;2023-04-25T13:20:06;1.88;;;0.80;;
27003;SDS011;14546;47.590;19.022;2023-04-25T13:22:37;1.67;;;0.82;;
27003;SDS011;14546;47.590;19.022;2023-04-25T13:25:03;0.93;;;0.75;;
27003;SDS011;14546;47.590;19.022;2023-04-25T13:27:30;3.65;;;0.82;;
27003;SDS011;14546;47.590;19.022;2023-04-25T13:29:57;1.75;;;0.82;;
27003;SDS011;14546;47.590;19.022;2023-04-25T13:32:23;0.73;;;0.60;;
27003;SDS011;14546;47.590;19.022;2023-04-25T13:34:50;3.00;;;1.00;;
27003;SDS011;14546;47.590;19.022;2023-04-25T13:37:16;1.02;;;0.85;;
27003;SDS011;14546;47.590;19.022;2023-04-25T13:39:42;2.17;;;0.70;;
27003;SDS011;14546;47.590;19.022;2023-04-25T13:42:09;0.93;;;0.77;;
27003;SDS011;14546;47.590;19.022;2023-04-25T13:44:36;2.92;;;0.88;;
27003;SDS011;14546;47.590;19.022;2023-04-25T13:47:02;3.03;;;0.80;;
27003;SDS011;14546;47.590;19.022;2023-04-25T13:49:28;4.53;;;0.80;;
27003;SDS011;14546;47.590;19.022;2023-04-25T13:51:54;2.60;;;0.70;;
27003;SDS011;14546;47.590;19.022;2023-04-25T13:54:20;1.70;;;0.77;;
27003;SDS011;14546;47.590;19.022;2023-04-25T13:56:46;1.20;;;0.68;;
27003;SDS011;14546;47.590;19.022;2023-04-25T13:59:13;2.65;;;0.73;;
27003;SDS011;14546;47.590;19.022;2023-04-25T14:01:39;1.98;;;0.75;;
27003;SDS011;14546;47.590;19.022;2023-04-25T14:04:05;2.22;;;1.10;;
27003;SDS011;14546;47.590;19.022;2023-04-25T14:06:32;2.88;;;0.90;;
27003;SDS011;14546;47.590;19.022;2023-04-25T14:08:58;2.58;;;0.90;;
27003;SDS011;14546;47.590;19.022;2023-04-25T14:11:26;3.53;;;1.08;;
27003;SDS011;14546;47.590;19.022;2023-04-25T14:13:52;0.93;;;0.90;;
27003;SDS011;14546;47.590;19.022;2023-04-25T14:16:18;3.28;;;1.15;;
27003;SDS011;14546;47.590;19.022;2023-04-25T14:18:44;2.42;;;0.98;;
27003;SDS011;14546;47.590;19.022;2023-04-25T14:21:11;1.35;;;0.93;;
27003;SDS011;14546;47.590;19.022;2023-04-25T14:23:37;3.47;;;1.00;;
27003;SDS011;14546;47.590;19.022;2023-04-25T14:26:03;1.02;;;0.88;;
27003;SDS011;14546;47.590;19.022;2023-04-25T14:28:30;3.88;;;0.93;;
27003;SDS011;14546;47.590;19.022;2023-04-25T14:30:56;1.42;;;1.00;;
27003;SDS011;14546;47.590;19.022;2023-04-25T14:33:22;2.97;;;1.10;;
27003;SDS011;14546;47.590;19.022;2023-04-25T14:35:48;2.63;;;1.00;;
27003;SDS011;14546;47.590;19.022;2023-04-25T14:38:14;2.90;;;0.90;;
27003;SDS011;14546;47.590;19.022;2023-04-25T14:40:41;1.23;;;0.88;;
27003;SDS011;14546;47.590;19.022;2023-04-25T14:43:07;1.10;;;0.88;;
27003;SDS011;14546;47.590;19.022;2023-04-25T14:45:33;3.60;;;1.35;;
27003;SDS011;14546;47.590;19.022;2023-04-25T14:47:59;2.80;;;1.10;;
27003;SDS011;14546;47.590;19.022;2023-04-25T14:50:25;1.50;;;1.05;;